createdAt,value
2019-02-20T00:04:12.784Z,28.63
2019-02-20T00:09:19.529Z,24.93
2019-02-20T00:14:25.552Z,28.03
2019-02-20T00:19:31.751Z,30.27
2019-02-20T00:24:37.824Z,29.17
2019-02-20T00:29:44.453Z,28.27
2019-02-20T00:34:51.909Z,27.70
2019-02-20T00:39:58.651Z,28.43
2019-02-20T00:45:18.761Z,29.17
2019-02-20T00:50:26.588Z,29.33
2019-02-20T00:55:34.285Z,31.13
2019-02-20T01:00:40.815Z,31.37
2019-02-20T01:05:47.309Z,32.13
2019-02-20T01:10:53.517Z,27.57
2019-02-20T01:16:00.381Z,30.03
2019-02-20T01:21:06.673Z,31.40
2019-02-20T01:26:13.315Z,35.57
2019-02-20T01:31:19.574Z,30.50
2019-02-20T01:36:26.110Z,27.53
2019-02-20T01:41:32.119Z,25.33
2019-02-20T01:46:38.741Z,31.63
2019-02-20T01:51:46.229Z,27.67
2019-02-20T01:56:52.581Z,34.00
2019-02-20T02:01:59.328Z,37.37
2019-02-20T02:07:05.691Z,35.33
2019-02-20T02:12:12.208Z,30.60
2019-02-20T02:17:19.095Z,33.13
2019-02-20T02:22:26.975Z,30.13
2019-02-20T02:27:32.592Z,28.93
2019-02-20T02:32:38.264Z,28.73
2019-02-20T02:37:44.013Z,28.83
2019-02-20T02:42:49.439Z,29.63
2019-02-20T02:47:54.817Z,31.37
2019-02-20T02:53:00.279Z,30.60
2019-02-20T02:58:06.324Z,26.13
2019-02-20T03:03:11.956Z,29.43
2019-02-20T03:08:17.404Z,32.67
2019-02-20T03:13:22.788Z,28.27
2019-02-20T03:18:28.168Z,27.53
2019-02-20T03:23:39.987Z,28.80
2019-02-20T03:28:41.152Z,25.67
2019-02-20T03:33:46.590Z,26.90
2019-02-20T03:38:52.272Z,29.03
2019-02-20T03:43:57.725Z,31.23
2019-02-20T03:49:03.324Z,30.07
2019-02-20T03:54:08.832Z,30.13
2019-02-20T03:59:14.165Z,35.60
2019-02-20T04:04:19.860Z,27.30
2019-02-20T04:09:25.377Z,28.87
2019-02-20T04:14:30.720Z,25.63
2019-02-20T04:19:38.173Z,27.93
2019-02-20T04:24:43.551Z,26.50
2019-02-20T04:29:48.932Z,31.43
2019-02-20T04:34:54.272Z,30.30
2019-02-20T04:39:59.640Z,31.27
2019-02-20T04:45:05.085Z,33.40
2019-02-20T04:50:10.486Z,31.93
2019-02-20T04:55:15.837Z,32.00
2019-02-20T05:00:21.222Z,36.40
2019-02-20T05:05:26.578Z,35.33
2019-02-20T05:10:31.900Z,48.33
2019-02-20T05:15:37.330Z,42.67
2019-02-20T05:20:42.753Z,52.50
2019-02-20T05:25:48.089Z,48.20
2019-02-20T05:30:53.438Z,44.33
2019-02-20T05:35:58.790Z,62.37
2019-02-20T05:41:04.133Z,68.50
2019-02-20T05:46:09.543Z,71.47
2019-02-20T05:51:14.831Z,111.80
2019-02-20T05:56:20.177Z,96.30
2019-02-20T06:01:25.470Z,85.03
2019-02-20T06:06:30.779Z,64.67
2019-02-20T06:11:36.198Z,84.00
2019-02-20T06:16:41.535Z,68.97
2019-02-20T06:21:46.900Z,188.37
2019-02-20T06:26:52.262Z,97.47
2019-02-20T06:31:57.519Z,100.30
2019-02-20T06:37:02.874Z,129.40
2019-02-20T06:42:08.138Z,64.53
2019-02-20T06:47:13.553Z,69.57
2019-02-20T06:52:18.851Z,82.70
2019-02-20T06:57:24.250Z,123.13
2019-02-20T07:02:29.531Z,104.13
2019-02-20T07:07:56.538Z,76.80
2019-02-20T07:13:22.900Z,94.63
2019-02-20T07:18:53.428Z,63.70
2019-02-20T07:24:42.818Z,72.00
2019-02-20T07:30:01.589Z,39.83
2019-02-20T07:35:09.507Z,87.90
2019-02-20T07:40:14.871Z,128.90
2019-02-20T07:45:20.849Z,139.87
2019-02-20T07:50:26.303Z,58.00
2019-02-20T07:55:31.675Z,98.87
2019-02-20T08:00:37.023Z,136.07
2019-02-20T08:05:42.546Z,106.40
2019-02-20T08:10:48.126Z,123.47
2019-02-20T08:15:53.447Z,107.90
2019-02-20T08:20:58.765Z,83.27
2019-02-20T08:26:05.133Z,65.80
2019-02-20T08:31:10.502Z,70.73
2019-02-20T08:36:15.824Z,108.53
2019-02-20T08:41:21.127Z,74.57
2019-02-20T08:46:26.423Z,76.03
2019-02-20T08:51:31.708Z,54.23
2019-02-20T08:56:37.028Z,57.47
2019-02-20T09:01:44.762Z,58.37
2019-02-20T09:06:52.970Z,92.20
2019-02-20T09:11:59.189Z,60.07
2019-02-20T09:17:04.519Z,69.27
2019-02-20T09:22:09.905Z,47.37
2019-02-20T09:27:15.194Z,95.30
2019-02-20T09:32:20.430Z,77.50
2019-02-20T09:37:25.966Z,77.73
2019-02-20T09:42:31.680Z,79.77
2019-02-20T09:47:36.956Z,71.67
2019-02-20T09:52:51.653Z,75.63
2019-02-20T09:57:50.081Z,45.03
2019-02-20T10:02:55.903Z,55.97
2019-02-20T10:08:01.281Z,35.47
2019-02-20T10:13:07.123Z,48.30
2019-02-20T10:18:12.411Z,36.53
2019-02-20T10:23:17.959Z,27.20
2019-02-20T10:28:23.555Z,31.27
2019-02-20T10:33:28.887Z,33.90
2019-02-20T10:38:34.252Z,33.20
2019-02-20T10:43:39.556Z,37.47
2019-02-20T10:48:48.029Z,31.60
2019-02-20T10:53:56.719Z,30.07
2019-02-20T10:59:02.343Z,28.60
2019-02-20T11:04:08.423Z,29.83
2019-02-20T11:09:13.827Z,30.93
2019-02-20T11:14:19.455Z,34.73
2019-02-20T11:19:25.153Z,32.07
2019-02-20T11:24:30.823Z,30.47
2019-02-20T11:29:36.438Z,29.87
2019-02-20T11:34:41.786Z,30.73
2019-02-20T11:39:47.418Z,31.83
2019-02-20T11:44:52.684Z,31.47
2019-02-20T11:49:58.123Z,33.20
2019-02-20T11:55:06.164Z,31.17
2019-02-20T12:00:12.510Z,31.93
2019-02-20T12:05:18.309Z,33.57
2019-02-20T12:10:24.019Z,36.00
2019-02-20T12:15:29.984Z,36.97
2019-02-20T12:20:35.404Z,31.23
2019-02-20T12:25:42.164Z,32.90
2019-02-20T12:30:48.090Z,32.47
2019-02-20T12:35:53.469Z,30.77
2019-02-20T12:41:01.023Z,35.73
2019-02-20T12:46:06.439Z,34.73
2019-02-20T12:51:12.725Z,32.57
2019-02-20T12:56:20.667Z,32.13
2019-02-20T13:01:26.276Z,32.07
2019-02-20T13:06:32.060Z,28.00
2019-02-20T13:11:38.434Z,31.80
2019-02-20T13:16:47.196Z,29.77
2019-02-20T13:21:53.040Z,34.87
2019-02-20T13:26:58.855Z,34.33
2019-02-20T13:32:05.367Z,35.40
2019-02-20T13:37:11.585Z,34.23
2019-02-20T13:42:17.096Z,32.10
2019-02-20T13:47:23.232Z,33.47
2019-02-20T13:52:30.416Z,30.43
2019-02-20T13:57:36.588Z,33.07
2019-02-20T14:02:42.099Z,30.80
2019-02-20T14:07:48.204Z,31.77
2019-02-20T14:12:54.807Z,28.93
2019-02-20T14:18:00.619Z,31.80
2019-02-20T14:23:06.854Z,32.83
2019-02-20T14:28:12.586Z,30.77
2019-02-20T14:33:18.627Z,36.27
2019-02-20T14:38:24.386Z,32.70
2019-02-20T14:43:29.816Z,28.50
2019-02-20T14:48:35.616Z,30.50
2019-02-20T14:53:42.470Z,32.80
2019-02-20T14:58:48.920Z,31.53
2019-02-20T15:03:55.280Z,34.33
2019-02-20T15:09:01.943Z,30.73
2019-02-20T15:14:08.851Z,34.60
2019-02-20T15:19:15.517Z,32.40
2019-02-20T15:24:21.625Z,35.83
2019-02-20T15:29:29.268Z,33.37
2019-02-20T15:34:36.346Z,34.27
2019-02-20T15:39:42.038Z,31.77
2019-02-20T15:44:48.064Z,62.97
2019-02-20T15:49:53.739Z,44.17
2019-02-20T15:54:59.507Z,50.27
2019-02-20T16:00:06.443Z,36.27
2019-02-20T16:05:12.290Z,32.57
2019-02-20T16:10:17.703Z,33.73
2019-02-20T16:15:24.292Z,33.50
2019-02-20T16:20:29.954Z,33.50
2019-02-20T16:25:35.257Z,34.47
2019-02-20T16:30:40.579Z,39.43
2019-02-20T16:35:45.875Z,40.70
2019-02-20T16:40:51.157Z,36.00
2019-02-20T16:45:56.761Z,50.80
2019-02-20T16:51:02.051Z,42.73
2019-02-20T16:56:07.375Z,43.67
2019-02-20T17:01:13.356Z,43.63
2019-02-20T17:06:18.640Z,48.53
2019-02-20T17:11:24.109Z,49.70
2019-02-20T17:16:29.775Z,44.77
2019-02-20T17:21:36.439Z,49.07
2019-02-20T17:26:42.039Z,51.20
2019-02-20T17:31:47.331Z,51.57
2019-02-20T17:36:53.209Z,54.67
2019-02-20T17:41:58.519Z,53.70
2019-02-20T17:47:03.803Z,53.03
2019-02-20T17:52:09.111Z,59.47
2019-02-20T17:57:15.303Z,61.80
2019-02-20T18:02:20.687Z,64.20
2019-02-20T18:07:26.023Z,58.47
2019-02-20T18:12:31.375Z,56.57
2019-02-20T18:17:36.730Z,56.90
2019-02-20T18:22:43.728Z,58.77
2019-02-20T18:27:50.120Z,58.17
2019-02-20T18:32:55.626Z,56.97
2019-02-20T18:38:01.158Z,61.07
2019-02-20T18:43:06.673Z,53.43
2019-02-20T18:48:12.540Z,59.77
2019-02-20T18:53:19.287Z,60.27
2019-02-20T18:58:33.517Z,56.07
2019-02-20T19:03:31.965Z,51.33
2019-02-20T19:09:02.343Z,50.43
2019-02-20T19:14:49.155Z,49.77
2019-02-20T19:20:17.188Z,50.50
2019-02-20T19:25:53.356Z,50.23
2019-02-20T19:31:38.784Z,52.17
2019-02-20T19:37:27.742Z,62.63
2019-02-20T19:43:27.531Z,55.33
2019-02-20T19:49:03.236Z,51.47
2019-02-20T19:54:31.021Z,51.47
2019-02-20T20:00:17.737Z,49.93
2019-02-20T20:06:04.175Z,48.07
2019-02-20T20:11:44.614Z,49.33
2019-02-20T20:17:23.921Z,49.97
2019-02-20T20:23:03.429Z,45.83
2019-02-20T20:28:52.148Z,51.37
2019-02-20T20:34:27.934Z,49.83
2019-02-20T20:39:54.640Z,44.73
2019-02-20T20:45:35.509Z,46.23
2019-02-20T20:51:19.531Z,45.40
2019-02-20T20:57:00.549Z,51.27
2019-02-20T21:02:25.011Z,52.50
2019-02-20T21:08:07.535Z,50.80
2019-02-20T21:13:39.099Z,52.73
2019-02-20T21:19:02.288Z,51.30
2019-02-20T21:24:34.035Z,53.77
2019-02-20T21:30:15.267Z,58.17
2019-02-20T21:35:57.147Z,60.77
2019-02-20T21:41:43.184Z,67.53
2019-02-20T21:47:07.699Z,63.93
2019-02-20T21:52:59.635Z,68.67
2019-02-20T21:58:25.214Z,68.47
2019-02-20T22:04:13.040Z,65.07
2019-02-20T22:10:01.256Z,71.63
2019-02-20T22:15:42.178Z,58.27
2019-02-20T22:21:24.227Z,62.40
2019-02-20T22:27:02.119Z,65.50
2019-02-20T22:32:48.696Z,65.17
2019-02-20T22:38:38.864Z,56.37
2019-02-20T22:44:30.178Z,56.60
2019-02-20T22:49:56.386Z,60.80
2019-02-20T22:55:38.071Z,52.87
2019-02-20T23:01:20.827Z,53.90
2019-02-20T23:07:07.489Z,53.40
2019-02-20T23:12:24.242Z,50.77
2019-02-20T23:17:30.045Z,46.80
2019-02-20T23:22:36.726Z,48.40
2019-02-20T23:27:43.525Z,46.03
2019-02-20T23:32:49.639Z,44.67
2019-02-20T23:37:56.110Z,44.23
2019-02-20T23:43:01.494Z,45.10
2019-02-20T23:48:07.096Z,47.47
2019-02-20T23:53:12.633Z,47.10
2019-02-20T23:58:17.975Z,48.80
